sensor_id;sensor_type;location;lat;lon;timestamp;temperature;humidity
50736;DHT22;36702;50.892;20.648;2022-08-06T00:00:23;23;85
50736;DHT22;36702;50.892;20.648;2022-08-06T00:07:13;23;83
50736;DHT22;36702;50.892;20.648;2022-08-06T00:14:19;23;83
50736;DHT22;36702;50.892;20.648;2022-08-06T00:21:04;23;83
50736;DHT22;36702;50.892;20.648;2022-08-06T00:28:04;23;83
50736;DHT22;36702;50.892;20.648;2022-08-06T00:35:14;23;83
50736;DHT22;36702;50.892;20.648;2022-08-06T00:42:18;23;83
50736;DHT22;36702;50.892;20.648;2022-08-06T00:49:02;23;83
50736;DHT22;36702;50.892;20.648;2022-08-06T00:56:02;23;83
50736;DHT22;36702;50.892;20.648;2022-08-06T01:00:16;23;83
50736;DHT22;36702;50.892;20.648;2022-08-06T01:07:04;23;82
50736;DHT22;36702;50.892;20.648;2022-08-06T01:14:16;23;82
50736;DHT22;36702;50.892;20.648;2022-08-06T01:28:51;23;82
50736;DHT22;36702;50.892;20.648;2022-08-06T01:35:56;23;84
50736;DHT22;36702;50.892;20.648;2022-08-06T01:42:21;23;84
50736;DHT22;36702;50.892;20.648;2022-08-06T01:49:25;23;84
50736;DHT22;36702;50.892;20.648;2022-08-06T01:56:14;23;84
50736;DHT22;36702;50.892;20.648;2022-08-06T02:00:05;23;84
50736;DHT22;36702;50.892;20.648;2022-08-06T02:07:43;23;85
50736;DHT22;36702;50.892;20.648;2022-08-06T02:14:22;23;85
50736;DHT22;36702;50.892;20.648;2022-08-06T02:21:36;23;85
50736;DHT22;36702;50.892;20.648;2022-08-06T02:28:05;23;85
50736;DHT22;36702;50.892;20.648;2022-08-06T02:35:18;23;86
50736;DHT22;36702;50.892;20.648;2022-08-06T02:42:23;23;86
50736;DHT22;36702;50.892;20.648;2022-08-06T02:49:38;23;86
50736;DHT22;36702;50.892;20.648;2022-08-06T02:56:23;23;86
50736;DHT22;36702;50.892;20.648;2022-08-06T03:00:09;23;86
50736;DHT22;36702;50.892;20.648;2022-08-06T03:07:33;23;86
50736;DHT22;36702;50.892;20.648;2022-08-06T03:14:03;23;86
50736;DHT22;36702;50.892;20.648;2022-08-06T03:21:10;23;86
50736;DHT22;36702;50.892;20.648;2022-08-06T03:28:22;23;86
50736;DHT22;36702;50.892;20.648;2022-08-06T03:35:18;23;83
50736;DHT22;36702;50.892;20.648;2022-08-06T03:42:06;23;83
50736;DHT22;36702;50.892;20.648;2022-08-06T03:56:24;23;83
50736;DHT22;36702;50.892;20.648;2022-08-06T04:00:10;23;83
50736;DHT22;36702;50.892;20.648;2022-08-06T04:07:19;23;83
50736;DHT22;36702;50.892;20.648;2022-08-06T04:14:04;23;83
50736;DHT22;36702;50.892;20.648;2022-08-06T04:21:19;23;83
50736;DHT22;36702;50.892;20.648;2022-08-06T04:28:10;23;83
50736;DHT22;36702;50.892;20.648;2022-08-06T04:35:17;23;85
50736;DHT22;36702;50.892;20.648;2022-08-06T04:42:06;23;85
50736;DHT22;36702;50.892;20.648;2022-08-06T04:49:18;23;85
50736;DHT22;36702;50.892;20.648;2022-08-06T04:56:17;23;85
50736;DHT22;36702;50.892;20.648;2022-08-06T05:00:05;23;85
50736;DHT22;36702;50.892;20.648;2022-08-06T05:07:19;23;86
50736;DHT22;36702;50.892;20.648;2022-08-06T05:15:05;23;86
50736;DHT22;36702;50.892;20.648;2022-08-06T05:21:45;23;86
50736;DHT22;36702;50.892;20.648;2022-08-06T05:28:18;23;86
50736;DHT22;36702;50.892;20.648;2022-08-06T05:35:16;23;87
50736;DHT22;36702;50.892;20.648;2022-08-06T05:42:03;23;87
50736;DHT22;36702;50.892;20.648;2022-08-06T05:49:44;23;87
50736;DHT22;36702;50.892;20.648;2022-08-06T05:56:38;23;87
50736;DHT22;36702;50.892;20.648;2022-08-06T06:00:26;23;87
50736;DHT22;36702;50.892;20.648;2022-08-06T06:07:18;22;88
50736;DHT22;36702;50.892;20.648;2022-08-06T06:14:44;22;88
50736;DHT22;36702;50.892;20.648;2022-08-06T06:21:18;22;88
50736;DHT22;36702;50.892;20.648;2022-08-06T06:28:14;22;88
50736;DHT22;36702;50.892;20.648;2022-08-06T06:43:02;22;88
50736;DHT22;36702;50.892;20.648;2022-08-06T06:49:22;22;88
50736;DHT22;36702;50.892;20.648;2022-08-06T06:56:13;22;88
50736;DHT22;36702;50.892;20.648;2022-08-06T07:00:14;22;88
50736;DHT22;36702;50.892;20.648;2022-08-06T07:07:25;22;88
50736;DHT22;36702;50.892;20.648;2022-08-06T07:14:21;22;88
50736;DHT22;36702;50.892;20.648;2022-08-06T07:21:10;22;88
50736;DHT22;36702;50.892;20.648;2022-08-06T07:28:03;22;88
50736;DHT22;36702;50.892;20.648;2022-08-06T07:42:07;22;88
50736;DHT22;36702;50.892;20.648;2022-08-06T07:49:21;22;88
50736;DHT22;36702;50.892;20.648;2022-08-06T07:56:20;22;88
50736;DHT22;36702;50.892;20.648;2022-08-06T08:00:20;22;88
50736;DHT22;36702;50.892;20.648;2022-08-06T08:14:18;22;89
50736;DHT22;36702;50.892;20.648;2022-08-06T08:21:23;22;89
50736;DHT22;36702;50.892;20.648;2022-08-06T08:28:19;22;89
50736;DHT22;36702;50.892;20.648;2022-08-06T08:42:28;22;89
50736;DHT22;36702;50.892;20.648;2022-08-06T08:56:11;22;89
50736;DHT22;36702;50.892;20.648;2022-08-06T09:00:09;22;89
50736;DHT22;36702;50.892;20.648;2022-08-06T09:14:23;22;89
50736;DHT22;36702;50.892;20.648;2022-08-06T09:21:18;22;89
50736;DHT22;36702;50.892;20.648;2022-08-06T09:28:27;22;89
50736;DHT22;36702;50.892;20.648;2022-08-06T09:35:27;22;89
50736;DHT22;36702;50.892;20.648;2022-08-06T09:42:15;22;90
50736;DHT22;36702;50.892;20.648;2022-08-06T09:49:05;22;90
50736;DHT22;36702;50.892;20.648;2022-08-06T09:56:18;22;90
50736;DHT22;36702;50.892;20.648;2022-08-06T10:00:37;22;90
50736;DHT22;36702;50.892;20.648;2022-08-06T10:14:23;22;90
50736;DHT22;36702;50.892;20.648;2022-08-06T10:21:14;22;90
50736;DHT22;36702;50.892;20.648;2022-08-06T10:28:20;22;90
50736;DHT22;36702;50.892;20.648;2022-08-06T10:35:28;22;90
50736;DHT22;36702;50.892;20.648;2022-08-06T10:42:15;22;91
50736;DHT22;36702;50.892;20.648;2022-08-06T10:49:26;22;91
50736;DHT22;36702;50.892;20.648;2022-08-06T10:56:18;22;91
50736;DHT22;36702;50.892;20.648;2022-08-06T11:00:17;22;91
50736;DHT22;36702;50.892;20.648;2022-08-06T11:14:27;22;91
50736;DHT22;36702;50.892;20.648;2022-08-06T11:21:50;22;91
50736;DHT22;36702;50.892;20.648;2022-08-06T11:28:08;22;91
50736;DHT22;36702;50.892;20.648;2022-08-06T11:35:54;22;91
50736;DHT22;36702;50.892;20.648;2022-08-06T11:42:41;22;91
50736;DHT22;36702;50.892;20.648;2022-08-06T11:49:35;22;91
50736;DHT22;36702;50.892;20.648;2022-08-06T11:56:13;22;91
50736;DHT22;36702;50.892;20.648;2022-08-06T12:00:54;22;91
50736;DHT22;36702;50.892;20.648;2022-08-06T12:07:20;22;91
50736;DHT22;36702;50.892;20.648;2022-08-06T12:14:42;22;91
50736;DHT22;36702;50.892;20.648;2022-08-06T12:21:25;22;91
50736;DHT22;36702;50.892;20.648;2022-08-06T12:28:05;22;91
50736;DHT22;36702;50.892;20.648;2022-08-06T12:35:12;22;91
50736;DHT22;36702;50.892;20.648;2022-08-06T12:42:03;23;90
50736;DHT22;36702;50.892;20.648;2022-08-06T12:49:13;23;90
50736;DHT22;36702;50.892;20.648;2022-08-06T12:56:04;23;90
50736;DHT22;36702;50.892;20.648;2022-08-06T13:00:19;23;90
50736;DHT22;36702;50.892;20.648;2022-08-06T13:07:16;23;90
50736;DHT22;36702;50.892;20.648;2022-08-06T13:14:14;23;89
50736;DHT22;36702;50.892;20.648;2022-08-06T13:21:26;23;89
50736;DHT22;36702;50.892;20.648;2022-08-06T13:28:26;23;89
50736;DHT22;36702;50.892;20.648;2022-08-06T13:35:25;23;89
50736;DHT22;36702;50.892;20.648;2022-08-06T13:42:12;24;89
50736;DHT22;36702;50.892;20.648;2022-08-06T13:49:19;24;89
50736;DHT22;36702;50.892;20.648;2022-08-06T13:56:06;24;89
50736;DHT22;36702;50.892;20.648;2022-08-06T14:00:02;24;89
50736;DHT22;36702;50.892;20.648;2022-08-06T14:07:28;24;89
50736;DHT22;36702;50.892;20.648;2022-08-06T14:14:03;24;87
50736;DHT22;36702;50.892;20.648;2022-08-06T14:21:12;24;87
50736;DHT22;36702;50.892;20.648;2022-08-06T14:28:21;24;87
50736;DHT22;36702;50.892;20.648;2022-08-06T14:35:18;24;87
50736;DHT22;36702;50.892;20.648;2022-08-06T14:49:03;24;86
50736;DHT22;36702;50.892;20.648;2022-08-06T14:56:16;24;86
50736;DHT22;36702;50.892;20.648;2022-08-06T15:00:11;24;86
50736;DHT22;36702;50.892;20.648;2022-08-06T15:07:03;24;86
50736;DHT22;36702;50.892;20.648;2022-08-06T15:21:03;23;85
50736;DHT22;36702;50.892;20.648;2022-08-06T15:28:03;23;85
50736;DHT22;36702;50.892;20.648;2022-08-06T15:35:18;23;85
50736;DHT22;36702;50.892;20.648;2022-08-06T15:49:01;23;85
50736;DHT22;36702;50.892;20.648;2022-08-06T15:56:15;23;85
50736;DHT22;36702;50.892;20.648;2022-08-06T16:07:16;23;85
50736;DHT22;36702;50.892;20.648;2022-08-06T16:21:04;24;85
50736;DHT22;36702;50.892;20.648;2022-08-06T16:28:11;24;85
50736;DHT22;36702;50.892;20.648;2022-08-06T16:35:06;24;85
50736;DHT22;36702;50.892;20.648;2022-08-06T16:49:20;25;85
50736;DHT22;36702;50.892;20.648;2022-08-06T16:56:02;25;85
50736;DHT22;36702;50.892;20.648;2022-08-06T17:00:04;25;85
50736;DHT22;36702;50.892;20.648;2022-08-06T17:07:15;25;85
50736;DHT22;36702;50.892;20.648;2022-08-06T17:21:15;26;86
50736;DHT22;36702;50.892;20.648;2022-08-06T17:28:02;26;86
50736;DHT22;36702;50.892;20.648;2022-08-06T17:35:27;26;86
50736;DHT22;36702;50.892;20.648;2022-08-06T17:49:20;23;75
50736;DHT22;36702;50.892;20.648;2022-08-06T17:56:04;23;75
50736;DHT22;36702;50.892;20.648;2022-08-06T18:00:21;23;75
50736;DHT22;36702;50.892;20.648;2022-08-06T18:07:19;23;75
50736;DHT22;36702;50.892;20.648;2022-08-06T18:21:06;26;90
50736;DHT22;36702;50.892;20.648;2022-08-06T18:28:17;26;90
50736;DHT22;36702;50.892;20.648;2022-08-06T18:35:08;26;90
50736;DHT22;36702;50.892;20.648;2022-08-06T18:49:02;23;76
50736;DHT22;36702;50.892;20.648;2022-08-06T18:56:17;23;76
50736;DHT22;36702;50.892;20.648;2022-08-06T19:00:17;23;76
50736;DHT22;36702;50.892;20.648;2022-08-06T19:07:04;23;76
50736;DHT22;36702;50.892;20.648;2022-08-06T19:21:06;23;74
50736;DHT22;36702;50.892;20.648;2022-08-06T19:28:18;23;74
50736;DHT22;36702;50.892;20.648;2022-08-06T19:35:21;23;74
50736;DHT22;36702;50.892;20.648;2022-08-06T19:49:02;23;74
50736;DHT22;36702;50.892;20.648;2022-08-06T19:56:16;23;74
50736;DHT22;36702;50.892;20.648;2022-08-06T20:00:08;23;74
50736;DHT22;36702;50.892;20.648;2022-08-06T20:07:17;23;74
50736;DHT22;36702;50.892;20.648;2022-08-06T20:21:18;23;74
50736;DHT22;36702;50.892;20.648;2022-08-06T20:28:06;23;74
50736;DHT22;36702;50.892;20.648;2022-08-06T20:35:10;23;74
50736;DHT22;36702;50.892;20.648;2022-08-06T20:49:18;23;74
50736;DHT22;36702;50.892;20.648;2022-08-06T20:56:21;23;74
50736;DHT22;36702;50.892;20.648;2022-08-06T21:00:20;23;74
50736;DHT22;36702;50.892;20.648;2022-08-06T21:07:07;23;74
50736;DHT22;36702;50.892;20.648;2022-08-06T21:21:17;23;73
50736;DHT22;36702;50.892;20.648;2022-08-06T21:28:24;23;73
50736;DHT22;36702;50.892;20.648;2022-08-06T21:35:18;23;73
50736;DHT22;36702;50.892;20.648;2022-08-06T21:49:03;23;73
50736;DHT22;36702;50.892;20.648;2022-08-06T21:56:03;23;73
50736;DHT22;36702;50.892;20.648;2022-08-06T22:00:00;23;73
50736;DHT22;36702;50.892;20.648;2022-08-06T22:07:17;23;73
50736;DHT22;36702;50.892;20.648;2022-08-06T22:14:04;23;72
50736;DHT22;36702;50.892;20.648;2022-08-06T22:21:06;23;72
50736;DHT22;36702;50.892;20.648;2022-08-06T22:28:18;23;72
50736;DHT22;36702;50.892;20.648;2022-08-06T22:35:07;23;85
50736;DHT22;36702;50.892;20.648;2022-08-06T22:42:02;23;85
50736;DHT22;36702;50.892;20.648;2022-08-06T22:49:19;23;85
50736;DHT22;36702;50.892;20.648;2022-08-06T22:56:15;23;85
50736;DHT22;36702;50.892;20.648;2022-08-06T23:07:17;23;84
50736;DHT22;36702;50.892;20.648;2022-08-06T23:14:16;23;84
50736;DHT22;36702;50.892;20.648;2022-08-06T23:21:28;23;84
50736;DHT22;36702;50.892;20.648;2022-08-06T23:28:17;23;84
50736;DHT22;36702;50.892;20.648;2022-08-06T23:35:15;23;84
50736;DHT22;36702;50.892;20.648;2022-08-06T23:42:14;23;84
50736;DHT22;36702;50.892;20.648;2022-08-06T23:49:05;23;84
50736;DHT22;36702;50.892;20.648;2022-08-06T23:56:01;23;84
